Terminal Aerodrome Forecast
Issued by NWS Midland/Odessa, TX

Home | Current Version | Previous Version | Text Only | Print | Product List | Glossary On
Versions: 1 2 3 4 5 6 7 8 9 10 11 12 13 14
090
FTUS44 KMAF 300821 AAA
TAFMAF
TAF AMD
KMAF 300821Z 3008/0106 06007KT P6SM SKC
     FM301800 26010KT P6SM SKC
     FM010200 11008KT P6SM SKC=

USA.gov is the U.S. government's official web portal to all federal, state and local government web resources and services.